Latest Weather Observations for Maria Island

IDT60801

Issued at 5:35 pm EST Friday 1 August 2014 (issued every 30 minutes, with the page automatically refreshed every 10 minutes)

About weather observations | Map of weather stations | Latest weather observations for TAS | Other Formats
Station Details ID: 092124 Name: MARIA ISLAND (POINT LESUEUR) Lat: -42.66 Lon: 148.02 Height: 28.0 m
Data from the previous 72 hours. | See also: Recent months at Maria Island
Date/Time
EST
Temp
°C
App
Temp
°C
Dew
Point
Rel
Hum
%
Delta-T
°C
Wind Press
QNH
hPa
Press
MSL
hPa
Rain
since 9 am
mm
Dir
 
Spd
km/h
Gust
km/h
Spd
kts
Gust
kts
01/05:30pm 7.0 -0.6 2.9 75 1.7 WSW 32 37 17 20 1005.0 - 5.4
01/05:00pm 7.5 -1.0 3.2 74 1.8 SSW 37 48 20 26 1003.9 1003.9 5.4
01/04:39pm 7.2 -1.4 2.5 72 1.9 SW 37 56 20 30 1003.1 - 5.4
01/04:30pm 6.5 -1.7 2.8 77 1.5 SW 35 43 19 23 1003.1 - 5.4
01/04:18pm 6.3 -2.6 3.1 80 1.3 SW 39 44 21 24 1002.8 - 5.4
01/04:14pm 6.2 -6.5 3.2 81 1.3 SSW 59 78 32 42 1002.8 - 5.4
01/04:08pm 6.0 -7.4 3.3 83 1.1 SSW 63 74 34 40 1002.4 - 5.2
01/04:00pm 7.0 -1.9 2.9 75 1.7 SW 39 59 21 32 1002.4 1002.4 5.0
01/03:59pm 6.9 -1.6 3.0 76 1.6 SW 37 59 20 32 1002.3 - 5.0
01/03:30pm 5.5 -4.2 3.7 88 0.8 SW 44 57 24 31 1001.6 - 5.0
01/03:17pm 5.7 -2.4 3.4 85 1.0 SW 35 50 19 27 1001.6 - 4.6
01/03:00pm 5.6 -0.4 3.1 84 1.0 SW 24 28 13 15 1000.6 1000.6 4.4
01/02:35pm 5.5 -4.0 3.7 88 0.8 SW 43 63 23 34 999.8 - 4.0
01/02:30pm 5.1 -4.1 3.4 89 0.7 SW 41 54 22 29 999.8 - 3.8
01/02:00pm 4.6 -5.0 3.3 91 0.5 SW 43 52 23 28 998.7 998.8 3.0
01/01:30pm 5.4 -4.6 4.1 91 0.6 SSW 46 59 25 32 997.9 - 2.0
01/01:00pm 6.6 -3.4 4.3 85 1.0 SW 46 56 25 30 996.6 996.7 0.6
01/12:41pm 7.5 0.0 3.4 75 1.7 SW 32 52 17 28 996.0 - 0.4
01/12:30pm 7.5 0.4 3.6 76 1.7 SW 30 35 16 19 995.8 - 0.4
01/12:00pm 7.5 2.7 4.8 83 1.2 W 19 28 10 15 995.1 995.2 0.4
01/11:30am 6.2 -1.7 4.4 88 0.8 SSW 35 43 19 23 995.5 - 0.0
01/11:00am 6.5 -2.6 4.0 84 1.1 SSW 41 50 22 27 994.5 994.6 0.0
01/10:34am 7.6 -2.3 2.5 70 2.1 SW 44 65 24 35 993.4 - 0.0
01/10:30am 8.5 -1.1 1.4 61 2.9 SW 41 54 22 29 993.5 - 0.0
01/10:27am 8.6 -0.1 1.7 62 2.8 SW 37 48 20 26 993.4 - 0.0
01/10:07am 8.3 0.9 1.7 63 2.7 W 30 48 16 26 992.6 - 0.0
01/10:00am 8.1 -1.2 0.8 60 3.0 W 39 50 21 27 992.2 992.2 0.0
01/09:30am 7.6 -2.0 1.2 64 2.6 WNW 41 52 22 28 990.7 - 0.0
01/09:00am 6.9 -3.0 1.6 69 2.2 WNW 43 52 23 28 989.4 989.4 23.0
01/08:30am 6.8 -4.0 1.9 71 2.0 NW 48 61 26 33 989.2 - 23.0
01/08:00am 6.6 -3.7 2.7 76 1.6 NW 46 59 25 32 989.3 989.3 23.0
01/07:30am 6.1 -5.1 1.8 74 1.7 NW 50 61 27 33 988.7 - 23.0
01/07:00am 5.9 -4.5 2.0 76 1.6 NNW 46 57 25 31 988.9 988.9 23.0
01/06:30am 5.8 -3.6 2.1 77 1.5 NW 41 46 22 25 989.6 - 23.0
01/06:00am 5.8 -2.0 1.7 75 1.7 NW 32 37 17 20 989.0 989.0 23.0
01/05:30am 6.0 -1.9 1.3 72 1.9 NW 32 39 17 21 988.8 - 23.0
01/05:00am 6.1 -3.9 1.2 71 2.0 NW 43 56 23 30 988.4 988.4 23.0
01/04:30am 6.1 -2.7 1.4 72 1.9 NW 37 50 20 27 988.3 - 23.0
01/04:00am 6.7 -4.9 1.4 69 2.2 NW 52 67 28 36 987.7 987.7 23.0
01/03:46am 6.8 -4.5 1.5 69 2.1 NW 50 72 27 39 987.6 - 23.0
01/03:30am 6.7 -3.3 2.0 72 1.9 NW 44 57 24 31 988.2 - 23.0
01/03:00am 6.7 -3.7 2.2 73 1.9 NW 46 63 25 34 987.4 987.4 23.0
01/02:30am 6.7 -5.9 1.6 70 2.1 NW 57 70 31 38 987.0 - 23.0
01/02:00am 6.5 -4.3 2.0 73 1.9 NW 48 61 26 33 987.1 987.1 23.0
01/01:30am 6.0 -4.5 1.7 74 1.7 NW 46 57 25 31 986.3 - 23.0
01/01:00am 6.2 -4.9 2.7 78 1.5 NW 50 63 27 34 986.1 986.1 23.0
01/12:30am 6.3 -6.9 2.4 76 1.6 WNW 61 74 33 40 985.8 - 23.0
01/12:10am 6.0 -7.2 2.3 77 1.5 NW 61 72 33 39 985.3 - 23.0
01/12:00am 5.8 -3.6 2.3 78 1.4 NW 41 57 22 31 985.9 985.9 23.0
 
Date/Time
EST
Temp
°C
App
Temp
°C
Dew
Point
Rel
Hum
%
Delta-T
°C
Wind Press
QNH
hPa
Press
MSL
hPa
Rain
since 9 am
mm
Dir
 
Spd
km/h
Gust
km/h
Spd
kts
Gust
kts
31/11:52pm 5.5 -2.7 2.7 82 1.1 WNW 35 43 19 23 986.1 - 23.0
31/11:33pm 5.7 -6.4 3.0 83 1.1 W 56 74 30 40 986.8 - 22.8
31/11:30pm 5.9 -6.5 2.7 80 1.3 W 57 74 31 40 986.4 - 22.6
31/11:25pm 6.2 -6.6 2.3 76 1.6 W 59 74 32 40 986.2 - 22.6
31/11:18pm 7.3 -1.3 2.4 71 2.0 WNW 37 56 20 30 986.4 - 22.4
31/11:00pm 7.7 -1.4 1.8 66 2.5 NW 39 54 21 29 985.2 985.2 22.4
31/10:54pm 7.7 -0.4 0.9 62 2.7 NW 33 54 18 29 984.8 - 22.4
31/10:30pm 7.8 -2.3 1.4 64 2.6 NW 44 59 24 32 984.5 - 22.4
31/10:12pm 7.7 0.0 2.2 68 2.3 NW 32 50 17 27 984.8 - 22.4
31/10:00pm 7.3 0.0 2.6 72 2.0 WNW 30 35 16 19 984.7 984.7 22.4
31/09:30pm 8.3 0.1 2.5 67 2.4 NW 35 43 19 23 984.3 - 22.4
31/09:00pm 8.5 0.6 2.5 66 2.6 NW 33 39 18 21 983.7 983.7 22.4
31/08:30pm 8.8 1.2 2.8 66 2.5 NW 32 37 17 20 983.1 - 22.4
31/08:00pm 9.2 0.4 3.8 69 2.4 NNW 39 46 21 25 982.7 982.7 22.4
31/07:30pm 9.3 -0.2 3.7 68 2.4 NNW 43 52 23 28 982.2 - 22.4
31/07:00pm 9.3 0.8 5.1 75 1.9 NNW 39 48 21 26 982.4 982.4 22.4
31/06:30pm 9.1 -0.6 5.8 80 1.5 NNW 46 57 25 31 981.4 - 22.4
31/06:06pm 9.7 -0.7 6.1 78 1.7 NNW 50 69 27 37 981.1 - 22.2
31/06:00pm 9.8 -0.6 6.2 78 1.7 NNW 50 57 27 31 981.3 981.3 22.2
31/05:47pm 9.8 1.2 6.7 81 1.5 NNW 41 56 22 30 981.3 - 22.2
31/05:30pm 9.3 2.7 6.0 80 1.5 N 30 35 16 19 981.3 - 22.2
31/05:00pm 8.5 5.0 5.4 81 1.4 WNW 13 19 7 10 981.5 981.5 22.2
31/04:30pm 8.3 3.2 6.1 86 1.0 N 22 30 12 16 982.4 - 22.2
31/04:00pm 7.6 5.5 6.5 93 0.5 NW 7 15 4 8 982.0 982.0 22.2
31/03:30pm 7.2 3.5 6.3 94 0.4 SW 15 20 8 11 982.1 - 22.2
31/03:00pm 7.3 2.4 6.7 96 0.3 S 22 26 12 14 980.7 980.7 22.2
31/02:30pm 7.7 3.5 7.3 97 0.2 SSW 19 26 10 14 981.9 - 22.0
31/02:00pm 7.8 -2.3 7.5 98 0.1 SW 50 54 27 29 980.9 980.9 20.4
31/01:39pm 8.1 1.3 7.7 97 0.2 S 33 41 18 22 980.4 - 17.6
31/01:30pm 7.9 5.6 7.5 97 0.2 SW 9 15 5 8 980.5 - 16.4
31/01:00pm 8.0 3.8 7.6 97 0.2 ESE 19 24 10 13 980.7 980.7 14.2
31/12:30pm 7.6 2.7 7.0 96 0.3 ESE 22 26 12 14 981.7 - 13.0
31/12:00pm 7.9 4.8 7.3 96 0.3 E 13 15 7 8 983.0 983.0 11.6
31/11:30am 8.2 4.4 7.6 96 0.3 S 17 20 9 11 984.3 - 9.4
31/11:00am 8.0 4.9 7.2 95 0.4 S 13 20 7 11 985.1 985.1 5.0
31/10:30am 8.3 6.4 7.4 94 0.4 ESE 7 11 4 6 985.3 - 1.6
31/10:00am 8.4 5.8 7.6 95 0.4 NE 11 15 6 8 986.3 986.3 0.4
31/09:30am 8.3 6.4 7.5 95 0.4 ENE 7 17 4 9 986.9 - 0.4
31/09:00am 7.9 5.9 7.1 95 0.4 E 7 11 4 6 987.8 987.8 5.8
31/08:30am 7.7 5.7 7.0 95 0.3 E 7 9 4 5 988.2 - 5.6
31/08:00am 7.9 5.5 7.0 94 0.4 SSE 9 13 5 7 988.7 988.7 5.0
31/07:30am 7.9 3.4 7.0 94 0.4 S 20 24 11 13 989.4 - 4.6
31/07:00am 8.3 3.5 7.4 94 0.4 S 22 26 12 14 989.5 989.5 3.6
31/06:30am 8.3 3.2 7.7 96 0.3 S 24 30 13 16 989.2 - 3.2
31/06:00am 7.9 1.1 7.5 97 0.2 S 33 39 18 21 988.9 988.9 3.2
31/05:48am 8.1 0.2 7.7 97 0.2 SSW 39 44 21 24 989.5 - 2.8
31/05:37am 8.2 -4.3 7.6 96 0.3 SSW 63 82 34 44 989.4 - 1.4
31/05:33am 8.7 -5.0 7.5 92 0.6 SSW 69 82 37 44 988.3 - 1.0
31/05:32am 9.3 1.0 7.7 90 0.8 SW 41 80 22 43 988.7 - 0.6
31/05:30am 9.6 2.7 7.2 85 1.1 SW 33 44 18 24 989.5 - 0.4
31/05:27am 12.8 8.6 9.6 81 1.6 WNW 22 28 12 15 989.3 - 0.2
31/05:00am 13.1 5.2 9.4 78 1.9 N 41 50 22 27 987.9 987.9 0.2
31/04:30am 12.9 6.8 9.7 81 1.6 N 32 37 17 20 987.9 - 0.2
31/04:00am 13.1 7.8 9.7 80 1.8 NNW 28 35 15 19 988.1 988.1 0.2
31/03:30am 13.2 6.9 9.6 79 1.8 NNW 33 41 18 22 988.2 - 0.2
31/03:00am 13.6 5.3 9.5 76 2.1 NNW 43 50 23 27 988.3 988.3 0.2
31/02:30am 13.7 3.3 9.4 75 2.2 NNW 54 65 29 35 988.0 - 0.2
31/02:00am 13.2 3.3 8.3 72 2.5 NNW 50 59 27 32 988.5 988.5 0.2
31/01:30am 12.9 3.0 8.2 73 2.3 NNW 50 61 27 33 988.2 - 0.2
31/01:00am 13.1 2.0 8.2 72 2.5 NNW 56 67 30 36 988.2 988.2 0.2
31/12:30am 13.0 2.4 8.3 73 2.3 NNW 54 65 29 35 988.4 - 0.2
31/12:00am 12.9 2.2 8.2 73 2.4 NNW 54 67 29 36 989.3 989.3 0.2
 
Date/Time
EST
Temp
°C
App
Temp
°C
Dew
Point
Rel
Hum
%
Delta-T
°C
Wind Press
QNH
hPa
Press
MSL
hPa
Rain
since 9 am
mm
Dir
 
Spd
km/h
Gust
km/h
Spd
kts
Gust
kts
30/11:30pm 13.5 2.2 7.3 66 3.0 NNW 56 67 30 36 989.1 - 0.2
30/11:11pm 13.4 2.6 7.6 68 2.8 NNW 54 72 29 39 989.4 - 0.2
30/11:00pm 13.8 2.7 6.4 61 3.6 NW 54 69 29 37 989.5 989.5 0.2
30/10:30pm 13.3 4.1 8.2 71 2.5 NNW 46 59 25 32 990.0 - 0.2
30/10:00pm 13.3 3.1 8.4 72 2.5 NNW 52 61 28 33 989.8 989.8 0.2
30/09:30pm 13.3 2.3 8.4 72 2.4 NNW 56 69 30 37 989.9 - 0.2
30/09:00pm 13.4 2.7 8.0 70 2.7 NNW 54 67 29 36 990.2 990.2 0.2
30/08:30pm 13.1 4.8 7.8 70 2.6 NNW 41 54 22 29 991.1 - 0.2
30/08:00pm 13.4 5.3 7.0 65 3.1 NNW 39 50 21 27 991.5 991.6 0.2
30/07:30pm 13.6 4.8 5.7 59 3.7 NW 41 57 22 31 992.4 - 0.2
30/07:00pm 13.9 5.2 5.8 58 3.9 NW 41 56 22 30 992.9 993.0 0.2
30/06:32pm 14.2 4.4 5.3 55 4.2 WNW 46 67 25 36 992.4 - 0.2
30/06:30pm 14.2 4.9 6.1 58 3.9 WNW 44 61 24 33 992.5 - 0.2
30/06:17pm 14.3 2.8 6.2 58 3.9 NW 56 76 30 41 992.3 - 0.2
30/06:11pm 14.0 3.7 6.6 61 3.6 NW 50 67 27 36 992.1 - 0.2
30/06:00pm 13.4 5.7 8.7 73 2.4 NW 39 48 21 26 992.5 992.6 0.0
30/05:30pm 13.3 5.9 8.2 71 2.5 NW 37 46 20 25 992.7 - 0.0
30/05:00pm 12.9 6.9 8.6 75 2.2 NW 30 39 16 21 992.8 992.9 0.0
30/04:54pm 12.9 6.6 8.8 76 2.1 NW 32 39 17 21 992.9 - 0.0
30/04:34pm 13.4 3.7 7.6 68 2.8 W 48 67 26 36 992.8 - 0.0
30/04:30pm 13.7 4.7 7.2 65 3.2 W 44 56 24 30 992.6 - 0.0
30/04:02pm 14.5 7.2 7.1 61 3.6 NW 35 59 19 32 992.5 - 0.0
30/04:00pm 14.5 7.2 7.3 62 3.6 NW 35 48 19 26 992.5 992.6 0.0
30/03:30pm 14.4 6.1 7.7 64 3.3 NW 41 50 22 27 992.3 - 0.0
30/03:11pm 14.5 6.1 7.3 62 3.5 NW 41 59 22 32 992.5 - 0.0
30/03:00pm 14.9 6.6 6.2 56 4.2 WNW 39 48 21 26 992.6 992.7 0.0
30/02:59pm 14.9 6.6 6.2 56 4.2 WNW 39 48 21 26 992.6 - 0.0
30/02:30pm 15.1 2.4 5.3 52 4.6 WNW 61 82 33 44 992.4 - 0.0
30/02:00pm 15.0 3.8 5.8 54 4.4 WNW 54 78 29 42 992.7 992.8 0.0
30/01:49pm 15.1 3.8 5.3 52 4.6 WNW 54 76 29 41 992.7 - 0.0
30/01:30pm 15.2 4.3 5.7 53 4.5 WNW 52 69 28 37 992.9 - 0.0
30/01:00pm 14.7 3.5 5.8 55 4.3 WNW 54 78 29 42 992.7 992.8 0.0
30/12:30pm 14.5 3.6 7.1 61 3.6 NW 54 78 29 42 993.2 - 0.0
30/12:00pm 14.8 4.1 6.4 57 4.1 NW 52 72 28 39 993.5 993.6 0.0
30/11:55am 14.5 4.2 6.3 58 3.9 NW 50 70 27 38 993.4 - 0.0
30/11:30am 14.2 4.7 6.8 61 3.6 NW 46 57 25 31 994.2 - 0.0
30/11:14am 14.3 4.7 6.2 58 3.9 NW 46 67 25 36 994.5 - 0.0
30/11:00am 13.9 5.3 6.5 61 3.6 NW 41 48 22 26 994.9 995.0 0.0
30/10:30am 12.8 4.6 6.6 66 3.0 NNW 39 52 21 28 995.5 - 0.0
30/10:00am 12.2 3.1 5.8 65 3.0 NW 43 54 23 29 995.4 995.5 0.0
30/09:30am 11.5 1.2 4.9 64 3.0 NW 48 61 26 33 995.5 - 0.0
30/09:00am 11.3 1.7 4.5 63 3.1 NNW 44 57 24 31 995.6 995.7 6.0
30/08:30am 10.8 0.2 3.1 59 3.4 NW 48 61 26 33 995.7 - 6.0
30/08:00am 10.9 1.6 3.0 58 3.5 NNW 41 54 22 29 996.0 996.1 6.0
30/07:30am 10.6 2.7 2.2 56 3.6 NNW 33 46 18 25 996.0 - 6.0
30/07:00am 10.2 2.3 1.1 53 3.8 WNW 32 41 17 22 995.7 995.8 6.0
30/06:30am 9.8 1.1 2.2 59 3.2 WNW 37 48 20 26 996.7 - 6.0
30/06:00am 9.5 1.7 3.0 64 2.8 WNW 33 44 18 24 996.8 996.9 6.0
30/05:30am 9.3 0.9 3.7 68 2.4 W 37 50 20 27 996.8 - 6.0
30/05:00am 9.5 0.4 4.1 69 2.4 WNW 41 54 22 29 996.5 996.6 6.0
30/04:41am 9.6 2.1 4.2 69 2.4 WNW 33 50 18 27 996.2 - 6.0
30/04:30am 9.3 3.9 4.5 72 2.1 WNW 22 30 12 16 996.4 - 6.0
30/04:00am 9.2 1.8 5.0 75 1.9 W 33 44 18 24 995.6 995.7 6.0
30/03:30am 8.9 1.2 5.3 78 1.6 WNW 35 46 19 25 994.7 - 6.0
30/03:00am 8.7 1.5 4.9 77 1.7 WNW 32 39 17 21 994.3 994.4 6.0
30/02:43am 8.8 1.9 4.6 75 1.9 WNW 30 44 16 24 993.8 - 6.0
30/02:30am 8.4 3.6 4.8 78 1.6 WNW 19 24 10 13 993.8 - 6.0
30/02:00am 8.3 -0.7 4.7 78 1.6 WNW 41 50 22 27 993.0 993.1 6.0
30/01:32am 8.0 -2.2 5.1 82 1.3 W 48 67 26 36 993.3 - 6.0
30/01:30am 8.2 -2.4 5.1 81 1.4 W 50 67 27 36 993.4 - 6.0
30/01:17am 8.7 -3.5 5.4 80 1.5 W 59 80 32 43 992.7 - 5.6
30/01:15am 8.6 -4.9 4.8 77 1.7 WNW 65 80 35 43 992.4 - 5.6
30/01:14am 8.8 -0.6 4.6 75 1.9 WNW 43 80 23 43 992.5 - 5.4
30/01:03am 9.2 2.6 4.4 72 2.1 W 28 56 15 30 992.2 - 5.0
30/01:00am 8.8 2.7 4.6 75 1.9 WNW 26 35 14 19 992.2 992.3 5.0
30/12:30am 8.2 1.9 5.5 83 1.2 W 28 39 15 21 991.9 - 5.0
30/12:00am 9.5 4.6 5.1 74 2.0 WNW 20 28 11 15 991.0 991.1 4.4
 
Date/Time
EST
Temp
°C
App
Temp
°C
Dew
Point
Rel
Hum
%
Delta-T
°C
Wind Press
QNH
hPa
Press
MSL
hPa
Rain
since 9 am
mm
Dir
 
Spd
km/h
Gust
km/h
Spd
kts
Gust
kts
29/11:30pm 9.2 -0.3 5.0 75 1.9 NW 44 63 24 34 990.2 - 4.4
29/11:04pm 8.0 -1.7 5.6 85 1.1 WNW 46 67 25 36 990.1 - 4.4
29/11:00pm 7.9 -2.6 5.7 86 1.0 WNW 50 69 27 37 990.1 990.1 4.4
29/10:30pm 8.4 -4.7 4.8 78 1.6 W 63 83 34 45 990.1 - 2.4
29/10:27pm 9.5 -2.5 4.7 72 2.1 W 57 74 31 40 990.1 - 2.0
29/10:15pm 10.8 -0.2 4.9 67 2.7 WNW 52 70 28 38 989.8 - 1.8
29/10:00pm 12.1 0.8 3.6 56 3.8 NW 52 63 28 34 988.9 988.9 1.8
29/09:30pm 12.9 3.3 1.0 44 5.0 WNW 41 61 22 33 988.2 - 1.8
29/09:00pm 13.1 2.0 2.4 48 4.7 WNW 50 69 27 37 988.1 988.1 1.8
29/08:43pm 13.1 2.3 1.8 46 4.9 WNW 48 85 26 46 987.5 - 1.8
29/08:31pm 12.8 2.9 2.9 51 4.4 WNW 44 63 24 34 987.3 - 1.8
29/08:30pm 12.7 2.4 2.6 50 4.4 WNW 46 63 25 34 987.1 - 1.8
29/08:03pm 12.3 1.4 3.8 56 3.8 WNW 50 78 27 42 986.8 - 1.8
29/08:00pm 12.1 1.8 4.6 60 3.5 WNW 48 65 26 35 987.1 987.1 1.8
29/07:30pm 11.3 2.1 6.2 71 2.4 NW 44 76 24 41 986.9 - 1.8
29/07:11pm 10.3 -1.0 7.0 80 1.6 WNW 56 76 30 41 987.3 - 1.8
29/07:08pm 10.4 -1.1 6.9 79 1.7 W 57 76 31 41 987.8 - 1.6
29/07:03pm 11.5 5.0 8.0 79 1.7 W 32 54 17 29 988.2 - 1.0
29/07:00pm 11.6 5.8 7.9 78 1.8 W 28 39 15 21 987.9 987.9 0.8
29/06:51pm 12.0 3.3 7.5 74 2.2 W 43 63 23 34 987.2 - 0.6
29/06:42pm 12.3 1.8 7.2 71 2.5 W 52 61 28 33 986.9 - 0.6
29/06:30pm 13.0 2.8 6.8 66 3.0 NW 50 67 27 36 985.9 - 0.4
29/06:07pm 13.6 4.7 6.7 63 3.3 NW 43 70 23 38 984.8 - 0.2
29/06:00pm 13.6 5.2 7.4 66 3.1 NNW 41 54 22 29 985.0 985.0 0.2

Other Formats:

Comma delimited format used in spreadsheet applications
http://www.bom.gov.au/fwo/IDT60801/IDT60801.95988.axf

JavaScript Object Notation format (JSON) in row-major order
http://www.bom.gov.au/fwo/IDT60801/IDT60801.95988.json